SAS180 ESSA-ESMS
Flight info
| Callsign | SAS180 |
|---|---|
| Flight time | 0h 59m |
| Altitude | 30000 |
| Route | NOSLI N850 ABAMA DCT NEMBA N33 ETPIG P605 EKRAL |
| Aircraft | MD82/M-SDFGIRWY/C |
Departure
| Time | 2026-05-07 18:38 |
|---|---|
| Airport | Stockholm-Arlanda Airport (ESSA) |
Arrival
| Time | 2026-05-07 19:37 |
|---|---|
| Airport | Malmö Sturup Airport (ESMS) |
| Time | Latitude | Longitude | Altitude | Speed | Heading |
|---|---|---|---|---|---|
| 2026-05-07 18:09 | 59.65201 | 17.93015 | 115 ft | 0 kts | 70° |
| 2026-05-07 18:29 | 59.65201 | 17.93014 | 115 ft | 0 kts | 70° |
| 2026-05-07 18:29 | 59.65201 | 17.93013 | 115 ft | 0 kts | 70° |
| 2026-05-07 18:29 | 59.65198 | 17.92997 | 115 ft | 1 kts | 70° |
| 2026-05-07 18:29 | 59.65194 | 17.92972 | 115 ft | 2 kts | 71° |
| 2026-05-07 18:30 | 59.65185 | 17.92921 | 114 ft | 4 kts | 71° |
| 2026-05-07 18:30 | 59.65187 | 17.92894 | 113 ft | 2 kts | 129° |
| 2026-05-07 18:30 | 59.65203 | 17.92856 | 112 ft | 4 kts | 129° |
| 2026-05-07 18:30 | 59.65211 | 17.92835 | 112 ft | 0 kts | 127° |
| 2026-05-07 18:31 | 59.65214 | 17.92828 | 111 ft | 1 kts | 127° |
| 2026-05-07 18:31 | 59.65222 | 17.92806 | 111 ft | 2 kts | 124° |
| 2026-05-07 18:31 | 59.65230 | 17.92774 | 110 ft | 0 kts | 115° |
| 2026-05-07 18:32 | 59.65230 | 17.92776 | 110 ft | 0 kts | 106° |
| 2026-05-07 18:32 | 59.65239 | 17.92789 | 110 ft | 5 kts | 9° |
| 2026-05-07 18:32 | 59.65298 | 17.92756 | 108 ft | 12 kts | 332° |
| 2026-05-07 18:33 | 59.65392 | 17.92659 | 106 ft | 16 kts | 333° |
| 2026-05-07 18:33 | 59.65490 | 17.92565 | 106 ft | 14 kts | 335° |
| 2026-05-07 18:33 | 59.65577 | 17.92508 | 107 ft | 11 kts | 342° |
| 2026-05-07 18:33 | 59.65660 | 17.92460 | 110 ft | 15 kts | 346° |
| 2026-05-07 18:34 | 59.65764 | 17.92430 | 112 ft | 14 kts | 2° |
| 2026-05-07 18:34 | 59.65868 | 17.92457 | 114 ft | 15 kts | 11° |
| 2026-05-07 18:34 | 59.65978 | 17.92497 | 116 ft | 15 kts | 10° |
| 2026-05-07 18:34 | 59.66065 | 17.92527 | 119 ft | 9 kts | 10° |
| 2026-05-07 18:35 | 59.66124 | 17.92548 | 122 ft | 8 kts | 10° |
| 2026-05-07 18:35 | 59.66190 | 17.92571 | 124 ft | 12 kts | 10° |
| 2026-05-07 18:35 | 59.66283 | 17.92605 | 127 ft | 15 kts | 11° |
| 2026-05-07 18:35 | 59.66395 | 17.92645 | 131 ft | 15 kts | 7° |
| 2026-05-07 18:36 | 59.66478 | 17.92631 | 134 ft | 9 kts | 347° |
| 2026-05-07 18:36 | 59.66523 | 17.92604 | 135 ft | 4 kts | 342° |
| 2026-05-07 18:36 | 59.66533 | 17.92598 | 135 ft | 4 kts | 342° |
| 2026-05-07 18:36 | 59.66578 | 17.92552 | 135 ft | 9 kts | 321° |
| 2026-05-07 18:37 | 59.66563 | 17.92387 | 132 ft | 31 kts | 202° |
| 2026-05-07 18:37 | 59.66112 | 17.92205 | 122 ft | 100 kts | 194° |
| 2026-05-07 18:37 | 59.65229 | 17.91871 | 112 ft | 157 kts | 187° |
| 2026-05-07 18:37 | 59.64064 | 17.91487 | 296 ft | 171 kts | 186° |
| 2026-05-07 18:38 | 59.62893 | 17.91122 | 284 ft | 179 kts | 186° |
| 2026-05-07 18:38 | 59.61659 | 17.90760 | 784 ft | 184 kts | 185° |
| 2026-05-07 18:38 | 59.60276 | 17.90390 | 1049 ft | 213 kts | 185° |
| 2026-05-07 18:38 | 59.58858 | 17.90031 | 2006 ft | 204 kts | 184° |
| 2026-05-07 18:39 | 59.57396 | 17.89683 | 2529 ft | 220 kts | 184° |
| 2026-05-07 18:39 | 59.55907 | 17.89348 | 3392 ft | 217 kts | 185° |
| 2026-05-07 18:39 | 59.54367 | 17.89021 | 3936 ft | 229 kts | 185° |
| 2026-05-07 18:39 | 59.52843 | 17.88713 | 4799 ft | 224 kts | 186° |
| 2026-05-07 18:40 | 59.51295 | 17.87856 | 4966 ft | 239 kts | 215° |
| 2026-05-07 18:40 | 59.50324 | 17.85383 | 4880 ft | 231 kts | 258° |
| 2026-05-07 18:40 | 59.50139 | 17.82297 | 4858 ft | 227 kts | 268° |
| 2026-05-07 18:40 | 59.50035 | 17.79221 | 5005 ft | 226 kts | 268° |
| 2026-05-07 18:41 | 59.49928 | 17.76090 | 4981 ft | 228 kts | 268° |
| 2026-05-07 18:41 | 59.49821 | 17.73002 | 5002 ft | 226 kts | 267° |
| 2026-05-07 18:41 | 59.49226 | 17.70173 | 4972 ft | 231 kts | 224° |
| 2026-05-07 18:41 | 59.47855 | 17.68648 | 5072 ft | 233 kts | 204° |
| 2026-05-07 18:42 | 59.46399 | 17.67269 | 5003 ft | 232 kts | 207° |
| 2026-05-07 18:42 | 59.44962 | 17.65823 | 5001 ft | 230 kts | 208° |
| 2026-05-07 18:42 | 59.43544 | 17.64350 | 5008 ft | 231 kts | 209° |
| 2026-05-07 18:42 | 59.42139 | 17.62868 | 5004 ft | 232 kts | 210° |
| 2026-05-07 18:43 | 59.40723 | 17.61360 | 5007 ft | 232 kts | 210° |
| 2026-05-07 18:43 | 59.39289 | 17.59826 | 5113 ft | 244 kts | 210° |
| 2026-05-07 18:43 | 59.37877 | 17.58319 | 6317 ft | 225 kts | 211° |
| 2026-05-07 18:43 | 59.36464 | 17.56803 | 6654 ft | 248 kts | 211° |
| 2026-05-07 18:44 | 59.35021 | 17.55262 | 7848 ft | 226 kts | 212° |
| 2026-05-07 18:44 | 59.33609 | 17.53745 | 8104 ft | 249 kts | 212° |
| 2026-05-07 18:44 | 59.32146 | 17.52186 | 9166 ft | 230 kts | 213° |
| 2026-05-07 18:44 | 59.30749 | 17.50688 | 9588 ft | 247 kts | 213° |
| 2026-05-07 18:45 | 59.29240 | 17.49081 | 10393 ft | 239 kts | 213° |
| 2026-05-07 18:45 | 59.27806 | 17.47548 | 10911 ft | 248 kts | 213° |
| 2026-05-07 18:45 | 59.26276 | 17.45920 | 11550 ft | 245 kts | 213° |
| 2026-05-07 18:45 | 59.24818 | 17.44367 | 12193 ft | 247 kts | 214° |
| 2026-05-07 18:46 | 59.23272 | 17.42723 | 12597 ft | 254 kts | 214° |
| 2026-05-07 18:46 | 59.21785 | 17.41148 | 13400 ft | 247 kts | 214° |
| 2026-05-07 18:46 | 59.20210 | 17.39473 | 13603 ft | 261 kts | 214° |
| 2026-05-07 18:46 | 59.18690 | 17.37869 | 14502 ft | 247 kts | 215° |
| 2026-05-07 18:47 | 59.17120 | 17.36198 | 14612 ft | 266 kts | 214° |
| 2026-05-07 18:47 | 59.15555 | 17.34551 | 15498 ft | 251 kts | 214° |
| 2026-05-07 18:47 | 59.13998 | 17.32897 | 15609 ft | 269 kts | 213° |
| 2026-05-07 18:47 | 59.12392 | 17.31209 | 16395 ft | 256 kts | 214° |
| 2026-05-07 18:48 | 59.10821 | 17.29549 | 16662 ft | 268 kts | 214° |
| 2026-05-07 18:48 | 59.09179 | 17.27820 | 17190 ft | 264 kts | 214° |
| 2026-05-07 18:48 | 59.07581 | 17.26138 | 17651 ft | 266 kts | 215° |
| 2026-05-07 18:48 | 59.06131 | 17.23958 | 17884 ft | 267 kts | 224° |
| 2026-05-07 18:49 | 59.04738 | 17.21718 | 18603 ft | 257 kts | 226° |
| 2026-05-07 18:49 | 59.03333 | 17.19439 | 18645 ft | 273 kts | 225° |
| 2026-05-07 18:49 | 59.01921 | 17.17169 | 19418 ft | 258 kts | 226° |
| 2026-05-07 18:49 | 59.00509 | 17.14882 | 19492 ft | 273 kts | 225° |
| 2026-05-07 18:50 | 58.99076 | 17.12580 | 20077 ft | 264 kts | 226° |
| 2026-05-07 18:50 | 58.97648 | 17.10278 | 20325 ft | 271 kts | 225° |
| 2026-05-07 18:50 | 58.96206 | 17.07962 | 20723 ft | 269 kts | 225° |
| 2026-05-07 18:50 | 58.94783 | 17.05676 | 21126 ft | 270 kts | 225° |
| 2026-05-07 18:51 | 58.93304 | 17.03301 | 21285 ft | 277 kts | 225° |
| 2026-05-07 18:51 | 58.91864 | 17.00999 | 21850 ft | 269 kts | 225° |
| 2026-05-07 18:51 | 58.90389 | 16.98635 | 21886 ft | 281 kts | 225° |
| 2026-05-07 18:51 | 58.88906 | 16.96267 | 22188 ft | 284 kts | 225° |
| 2026-05-07 18:52 | 58.87331 | 16.93748 | 22180 ft | 297 kts | 225° |
| 2026-05-07 18:52 | 58.85727 | 16.91190 | 22258 ft | 307 kts | 225° |
| 2026-05-07 18:52 | 58.84060 | 16.88535 | 22291 ft | 319 kts | 224° |
| 2026-05-07 18:52 | 58.82328 | 16.85780 | 22365 ft | 329 kts | 224° |
| 2026-05-07 18:53 | 58.80553 | 16.82965 | 22798 ft | 327 kts | 225° |
| 2026-05-07 18:53 | 58.78819 | 16.80216 | 23165 ft | 328 kts | 225° |
| 2026-05-07 18:53 | 58.77051 | 16.77416 | 23373 ft | 332 kts | 225° |
| 2026-05-07 18:53 | 58.75275 | 16.74610 | 23879 ft | 328 kts | 225° |
| 2026-05-07 18:54 | 58.73502 | 16.71806 | 23886 ft | 339 kts | 224° |
| 2026-05-07 18:54 | 58.71719 | 16.68999 | 24548 ft | 329 kts | 225° |
| 2026-05-07 18:54 | 58.69931 | 16.66180 | 24606 ft | 339 kts | 224° |
| 2026-05-07 18:54 | 58.68080 | 16.63268 | 24844 ft | 341 kts | 224° |
| 2026-05-07 18:55 | 58.66284 | 16.60448 | 25231 ft | 341 kts | 225° |
| 2026-05-07 18:55 | 58.64411 | 16.57510 | 25351 ft | 346 kts | 224° |
| 2026-05-07 18:55 | 58.62589 | 16.54659 | 25816 ft | 342 kts | 224° |
| 2026-05-07 18:55 | 58.60722 | 16.51733 | 25853 ft | 350 kts | 225° |
| 2026-05-07 18:56 | 58.58834 | 16.48787 | 26276 ft | 347 kts | 224° |
| 2026-05-07 18:56 | 58.56965 | 16.45872 | 26364 ft | 354 kts | 224° |
| 2026-05-07 18:56 | 58.55060 | 16.42906 | 26760 ft | 350 kts | 225° |
| 2026-05-07 18:56 | 58.53178 | 16.39980 | 26851 ft | 357 kts | 224° |
| 2026-05-07 18:57 | 58.51249 | 16.36988 | 27240 ft | 353 kts | 225° |
| 2026-05-07 18:57 | 58.49355 | 16.34048 | 27392 ft | 357 kts | 224° |
| 2026-05-07 18:57 | 58.47433 | 16.31072 | 27559 ft | 359 kts | 223° |
| 2026-05-07 18:57 | 58.45494 | 16.28073 | 27810 ft | 360 kts | 224° |
| 2026-05-07 18:58 | 58.43525 | 16.25034 | 27974 ft | 363 kts | 224° |
| 2026-05-07 18:58 | 58.41591 | 16.22055 | 28228 ft | 364 kts | 224° |
| 2026-05-07 18:58 | 58.39628 | 16.19031 | 28359 ft | 366 kts | 224° |
| 2026-05-07 18:58 | 58.37651 | 16.15994 | 28619 ft | 367 kts | 224° |
| 2026-05-07 18:59 | 58.35662 | 16.12941 | 28715 ft | 370 kts | 224° |
| 2026-05-07 18:59 | 58.33653 | 16.09864 | 29044 ft | 368 kts | 223° |
| 2026-05-07 18:59 | 58.31656 | 16.06806 | 29057 ft | 374 kts | 223° |
| 2026-05-07 18:59 | 58.29658 | 16.03755 | 29427 ft | 369 kts | 223° |
| 2026-05-07 19:00 | 58.27636 | 16.00671 | 29500 ft | 374 kts | 223° |
| 2026-05-07 19:00 | 58.25597 | 15.97564 | 29737 ft | 372 kts | 223° |
| 2026-05-07 19:00 | 58.23572 | 15.94485 | 29812 ft | 377 kts | 223° |
| 2026-05-07 19:00 | 58.21507 | 15.91349 | 29995 ft | 374 kts | 223° |
| 2026-05-07 19:01 | 58.19487 | 15.88287 | 29951 ft | 373 kts | 223° |
| 2026-05-07 19:01 | 58.15370 | 15.82056 | 29977 ft | 382 kts | 223° |
| 2026-05-07 19:02 | 58.11223 | 15.75804 | 29975 ft | 379 kts | 223° |
| 2026-05-07 19:02 | 58.07106 | 15.69613 | 29983 ft | 379 kts | 223° |
| 2026-05-07 19:03 | 58.02989 | 15.63441 | 29980 ft | 379 kts | 223° |
| 2026-05-07 19:03 | 57.98861 | 15.57273 | 29981 ft | 379 kts | 223° |
| 2026-05-07 19:04 | 57.94748 | 15.51144 | 29985 ft | 382 kts | 222° |
| 2026-05-07 19:04 | 57.90597 | 15.44979 | 29980 ft | 382 kts | 222° |
| 2026-05-07 19:05 | 57.86403 | 15.38770 | 29972 ft | 383 kts | 222° |
| 2026-05-07 19:05 | 57.82225 | 15.32601 | 29976 ft | 384 kts | 221° |
| 2026-05-07 19:06 | 57.78042 | 15.26445 | 29968 ft | 384 kts | 221° |
| 2026-05-07 19:06 | 57.71759 | 15.17232 | 29970 ft | 385 kts | 221° |
| 2026-05-07 19:07 | 57.67553 | 15.11091 | 29967 ft | 385 kts | 221° |
| 2026-05-07 19:07 | 57.63334 | 15.04944 | 29967 ft | 386 kts | 221° |
| 2026-05-07 19:08 | 57.59119 | 14.98826 | 29967 ft | 385 kts | 221° |
| 2026-05-07 19:08 | 57.54897 | 14.92714 | 29970 ft | 387 kts | 221° |
| 2026-05-07 19:09 | 57.50660 | 14.86600 | 29969 ft | 387 kts | 221° |
| 2026-05-07 19:09 | 57.46401 | 14.80470 | 29972 ft | 388 kts | 221° |
| 2026-05-07 19:10 | 57.42156 | 14.74383 | 29972 ft | 387 kts | 220° |
| 2026-05-07 19:10 | 57.37894 | 14.68288 | 29974 ft | 388 kts | 220° |
| 2026-05-07 19:11 | 57.33620 | 14.62192 | 29970 ft | 387 kts | 220° |
| 2026-05-07 19:11 | 57.29374 | 14.56156 | 29974 ft | 387 kts | 220° |
| 2026-05-07 19:12 | 57.25097 | 14.50095 | 29969 ft | 388 kts | 220° |
| 2026-05-07 19:12 | 57.20796 | 14.44019 | 29973 ft | 389 kts | 220° |
| 2026-05-07 19:13 | 57.16483 | 14.38059 | 29957 ft | 391 kts | 212° |
| 2026-05-07 19:13 | 57.13913 | 14.36480 | 30158 ft | 393 kts | 188° |
| 2026-05-07 19:13 | 57.11171 | 14.36137 | 30087 ft | 401 kts | 186° |
| 2026-05-07 19:14 | 57.05617 | 14.35355 | 30096 ft | 398 kts | 187° |
| 2026-05-07 19:14 | 57.00107 | 14.34512 | 30096 ft | 397 kts | 186° |
| 2026-05-07 19:15 | 56.94617 | 14.33651 | 29512 ft | 396 kts | 186° |
| 2026-05-07 19:15 | 56.91896 | 14.33221 | 29064 ft | 389 kts | 186° |
| 2026-05-07 19:15 | 56.89257 | 14.32803 | 28536 ft | 387 kts | 186° |
| 2026-05-07 19:16 | 56.86578 | 14.32379 | 27848 ft | 386 kts | 186° |
| 2026-05-07 19:16 | 56.83935 | 14.31962 | 27591 ft | 377 kts | 186° |
| 2026-05-07 19:16 | 56.81323 | 14.31548 | 26652 ft | 384 kts | 186° |
| 2026-05-07 19:16 | 56.78737 | 14.31142 | 26609 ft | 368 kts | 186° |
| 2026-05-07 19:17 | 56.76187 | 14.30738 | 25674 ft | 377 kts | 186° |
| 2026-05-07 19:17 | 56.73627 | 14.30320 | 25546 ft | 362 kts | 186° |
| 2026-05-07 19:17 | 56.71117 | 14.29910 | 24702 ft | 370 kts | 186° |
| 2026-05-07 19:17 | 56.68573 | 14.29498 | 24470 ft | 357 kts | 186° |
| 2026-05-07 19:18 | 56.66138 | 14.29102 | 24029 ft | 353 kts | 186° |
| 2026-05-07 19:18 | 56.63757 | 14.28717 | 24082 ft | 334 kts | 186° |
| 2026-05-07 19:18 | 56.61523 | 14.28355 | 24075 ft | 316 kts | 187° |
| 2026-05-07 19:18 | 56.59345 | 14.28001 | 24029 ft | 316 kts | 186° |
| 2026-05-07 19:19 | 56.57162 | 14.27647 | 24122 ft | 325 kts | 186° |
| 2026-05-07 19:19 | 56.54874 | 14.27277 | 24085 ft | 337 kts | 186° |
| 2026-05-07 19:19 | 56.52495 | 14.26893 | 24059 ft | 346 kts | 186° |
| 2026-05-07 19:19 | 56.50113 | 14.26508 | 23453 ft | 354 kts | 186° |
| 2026-05-07 19:20 | 56.47610 | 14.26105 | 22472 ft | 368 kts | 186° |
| 2026-05-07 19:20 | 56.45066 | 14.25697 | 21618 ft | 376 kts | 186° |
| 2026-05-07 19:20 | 56.42435 | 14.25275 | 20632 ft | 387 kts | 186° |
| 2026-05-07 19:20 | 56.39737 | 14.24843 | 19724 ft | 395 kts | 186° |
| 2026-05-07 19:21 | 56.37011 | 14.24406 | 18745 ft | 403 kts | 186° |
| 2026-05-07 19:21 | 56.34216 | 14.23959 | 17730 ft | 411 kts | 186° |
| 2026-05-07 19:21 | 56.31390 | 14.23509 | 17368 ft | 400 kts | 186° |
| 2026-05-07 19:21 | 56.28654 | 14.23074 | 16802 ft | 397 kts | 186° |
| 2026-05-07 19:22 | 56.25916 | 14.22638 | 16297 ft | 392 kts | 186° |
| 2026-05-07 19:22 | 56.23244 | 14.22214 | 15819 ft | 387 kts | 185° |
| 2026-05-07 19:22 | 56.20585 | 14.21792 | 15368 ft | 382 kts | 185° |
| 2026-05-07 19:22 | 56.17983 | 14.21073 | 14909 ft | 375 kts | 199° |
| 2026-05-07 19:23 | 56.15567 | 14.19544 | 14519 ft | 369 kts | 199° |
| 2026-05-07 19:23 | 56.13186 | 14.18064 | 14043 ft | 357 kts | 199° |
| 2026-05-07 19:23 | 56.10905 | 14.16651 | 13674 ft | 339 kts | 199° |
| 2026-05-07 19:23 | 56.08752 | 14.15318 | 13180 ft | 320 kts | 199° |
| 2026-05-07 19:24 | 56.06701 | 14.14051 | 12851 ft | 312 kts | 199° |
| 2026-05-07 19:24 | 56.04562 | 14.12732 | 12526 ft | 343 kts | 199° |
| 2026-05-07 19:24 | 56.02323 | 14.11352 | 12147 ft | 332 kts | 199° |
| 2026-05-07 19:24 | 56.00232 | 14.10066 | 11938 ft | 312 kts | 199° |
| 2026-05-07 19:25 | 55.98196 | 14.08816 | 11577 ft | 308 kts | 199° |
| 2026-05-07 19:25 | 55.96188 | 14.07583 | 11245 ft | 303 kts | 198° |
| 2026-05-07 19:25 | 55.94224 | 14.06379 | 10924 ft | 297 kts | 198° |
| 2026-05-07 19:25 | 55.92255 | 14.05174 | 10605 ft | 297 kts | 198° |
| 2026-05-07 19:26 | 55.90275 | 14.03963 | 10394 ft | 302 kts | 198° |
| 2026-05-07 19:26 | 55.88322 | 14.02770 | 10307 ft | 294 kts | 198° |
| 2026-05-07 19:26 | 55.86408 | 14.01601 | 10234 ft | 288 kts | 198° |
| 2026-05-07 19:26 | 55.84554 | 14.00470 | 10141 ft | 278 kts | 198° |
| 2026-05-07 19:27 | 55.82767 | 13.99381 | 9932 ft | 269 kts | 198° |
| 2026-05-07 19:27 | 55.81045 | 13.98332 | 9653 ft | 258 kts | 198° |
| 2026-05-07 19:27 | 55.79348 | 13.97288 | 9366 ft | 256 kts | 202° |
| 2026-05-07 19:27 | 55.78001 | 13.95372 | 9064 ft | 253 kts | 240° |
| 2026-05-07 19:28 | 55.77581 | 13.92452 | 8831 ft | 245 kts | 273° |
| 2026-05-07 19:28 | 55.77564 | 13.89393 | 8295 ft | 257 kts | 270° |
| 2026-05-07 19:28 | 55.77522 | 13.86143 | 7656 ft | 271 kts | 270° |
| 2026-05-07 19:28 | 55.77473 | 13.82772 | 7319 ft | 270 kts | 270° |
| 2026-05-07 19:29 | 55.77424 | 13.79490 | 7073 ft | 265 kts | 270° |
| 2026-05-07 19:29 | 55.77373 | 13.76207 | 6499 ft | 273 kts | 270° |
| 2026-05-07 19:29 | 55.77319 | 13.72815 | 6060 ft | 275 kts | 270° |
| 2026-05-07 19:29 | 55.77264 | 13.69444 | 5644 ft | 275 kts | 270° |
| 2026-05-07 19:30 | 55.77208 | 13.66102 | 5259 ft | 274 kts | 270° |
| 2026-05-07 19:30 | 55.77151 | 13.62712 | 4900 ft | 272 kts | 270° |
| 2026-05-07 19:30 | 55.77094 | 13.59404 | 4560 ft | 269 kts | 270° |
| 2026-05-07 19:30 | 55.77036 | 13.56103 | 4249 ft | 265 kts | 270° |
| 2026-05-07 19:31 | 55.76980 | 13.52924 | 4113 ft | 254 kts | 270° |
| 2026-05-07 19:31 | 55.76924 | 13.49840 | 4009 ft | 243 kts | 270° |
| 2026-05-07 19:31 | 55.76869 | 13.46889 | 3690 ft | 233 kts | 271° |
| 2026-05-07 19:31 | 55.76817 | 13.44101 | 3490 ft | 229 kts | 271° |
| 2026-05-07 19:32 | 55.76763 | 13.41172 | 3260 ft | 250 kts | 270° |
| 2026-05-07 19:32 | 55.76259 | 13.38224 | 3214 ft | 251 kts | 234° |
| 2026-05-07 19:32 | 55.74911 | 13.36463 | 3159 ft | 238 kts | 199° |
| 2026-05-07 19:32 | 55.73436 | 13.35452 | 3031 ft | 220 kts | 203° |
| 2026-05-07 19:33 | 55.72088 | 13.34465 | 2964 ft | 198 kts | 203° |
| 2026-05-07 19:33 | 55.70851 | 13.34042 | 2983 ft | 166 kts | 167° |
| 2026-05-07 19:33 | 55.69768 | 13.34291 | 3040 ft | 159 kts | 172° |
| 2026-05-07 19:33 | 55.68663 | 13.34520 | 3075 ft | 156 kts | 172° |
| 2026-05-07 19:34 | 55.67598 | 13.34741 | 3016 ft | 154 kts | 172° |
| 2026-05-07 19:34 | 55.66534 | 13.34961 | 3026 ft | 154 kts | 172° |
| 2026-05-07 19:34 | 55.65454 | 13.35184 | 3021 ft | 155 kts | 172° |
| 2026-05-07 19:34 | 55.64383 | 13.35405 | 3021 ft | 155 kts | 172° |
| 2026-05-07 19:35 | 55.63289 | 13.35633 | 2826 ft | 163 kts | 172° |
| 2026-05-07 19:35 | 55.62185 | 13.35867 | 2580 ft | 159 kts | 172° |
| 2026-05-07 19:35 | 55.61126 | 13.36093 | 2342 ft | 153 kts | 172° |
| 2026-05-07 19:35 | 55.60065 | 13.36324 | 1965 ft | 155 kts | 172° |
| 2026-05-07 19:36 | 55.58998 | 13.36557 | 1536 ft | 157 kts | 173° |
| 2026-05-07 19:36 | 55.57960 | 13.36811 | 1257 ft | 147 kts | 175° |
| 2026-05-07 19:36 | 55.56959 | 13.36939 | 960 ft | 142 kts | 175° |
| 2026-05-07 19:36 | 55.55996 | 13.37205 | 623 ft | 139 kts | 172° |
| 2026-05-07 19:37 | 55.55066 | 13.37377 | 365 ft | 131 kts | 178° |
| 2026-05-07 19:37 | 55.54202 | 13.37511 | 228 ft | 116 kts | 176° |
| 2026-05-07 19:37 | 55.53553 | 13.37612 | 234 ft | 64 kts | 180° |
| 2026-05-07 19:37 | 55.53196 | 13.37595 | 238 ft | 40 kts | 165° |
| 2026-05-07 19:38 | 55.52999 | 13.37686 | 234 ft | 5 kts | 212° |
| 2026-05-07 19:38 | 55.52982 | 13.37635 | 234 ft | 5 kts | 250° |
| 2026-05-07 19:38 | 55.52970 | 13.37556 | 234 ft | 5 kts | 268° |
| 2026-05-07 19:38 | 55.52976 | 13.37503 | 234 ft | 3 kts | 292° |
| 2026-05-07 19:39 | 55.52990 | 13.37473 | 234 ft | 2 kts | 334° |
| 2026-05-07 19:39 | 55.53021 | 13.37453 | 234 ft | 6 kts | 342° |
| 2026-05-07 19:39 | 55.53097 | 13.37430 | 235 ft | 16 kts | 354° |
| 2026-05-07 19:39 | 55.53226 | 13.37407 | 237 ft | 20 kts | 353° |
| 2026-05-07 19:40 | 55.53381 | 13.37376 | 236 ft | 21 kts | 352° |
| 2026-05-07 19:40 | 55.53426 | 13.37309 | 236 ft | 3 kts | 358° |
| 2026-05-07 19:40 | 55.53436 | 13.37311 | 235 ft | 0 kts | 9° |
| 2026-05-07 19:40 | 55.53446 | 13.37314 | 235 ft | 5 kts | 9° |
| 2026-05-07 19:41 | 55.53489 | 13.37327 | 234 ft | 8 kts | 9° |
| 2026-05-07 19:41 | 55.53595 | 13.37342 | 234 ft | 20 kts | 356° |
| 2026-05-07 19:41 | 55.53734 | 13.37307 | 233 ft | 21 kts | 348° |
| 2026-05-07 19:41 | 55.53879 | 13.37262 | 230 ft | 20 kts | 345° |
| 2026-05-07 19:42 | 55.53948 | 13.37140 | 228 ft | 8 kts | 282° |
| 2026-05-07 19:42 | 55.53952 | 13.37056 | 228 ft | 6 kts | 271° |
| 2026-05-07 19:42 | 55.53957 | 13.36968 | 228 ft | 7 kts | 289° |
| 2026-05-07 19:42 | 55.53983 | 13.36900 | 228 ft | 5 kts | 327° |
| 2026-05-07 19:43 | 55.53992 | 13.36893 | 228 ft | 4 kts | 337° |
| 2026-05-07 19:43 | 55.54022 | 13.36876 | 227 ft | 0 kts | 347° |